createdAt,value
2023-05-10T00:00:23.680Z,3.40
2023-05-10T00:03:08.815Z,3.30
2023-05-10T00:05:36.625Z,3.40
2023-05-10T00:08:04.290Z,3.80
2023-05-10T00:10:31.916Z,3.20
2023-05-10T00:12:59.568Z,3.30
2023-05-10T00:15:27.262Z,3.60
2023-05-10T00:17:54.941Z,3.30
2023-05-10T00:20:22.630Z,3.40
2023-05-10T00:22:50.271Z,4.00
2023-05-10T00:25:17.841Z,3.60
2023-05-10T00:27:45.576Z,2.70
2023-05-10T00:30:13.363Z,3.40
2023-05-10T00:32:41.342Z,3.50
2023-05-10T00:35:09.041Z,3.80
2023-05-10T00:37:36.685Z,3.30
2023-05-10T00:40:04.292Z,3.20
2023-05-10T00:42:31.968Z,3.80
2023-05-10T00:44:59.611Z,3.20
2023-05-10T00:47:27.247Z,3.60
2023-05-10T00:49:54.910Z,3.40
2023-05-10T00:52:24.445Z,3.20
2023-05-10T00:54:52.237Z,3.20
2023-05-10T00:57:19.866Z,3.50
2023-05-10T00:59:47.499Z,3.20
2023-05-10T01:02:15.507Z,3.20
2023-05-10T01:04:43.285Z,3.20
2023-05-10T01:07:11.762Z,3.30
2023-05-10T01:09:39.359Z,3.30
2023-05-10T01:12:08.439Z,2.90
2023-05-10T01:14:37.415Z,3.00
2023-05-10T01:17:05.068Z,3.20
2023-05-10T01:19:33.005Z,3.00
2023-05-10T01:22:00.660Z,3.30
2023-05-10T01:24:28.261Z,3.10
2023-05-10T01:26:55.848Z,3.90
2023-05-10T01:29:23.460Z,3.20
2023-05-10T01:31:51.168Z,3.70
2023-05-10T01:34:18.838Z,3.50
2023-05-10T01:36:46.456Z,3.10
2023-05-10T01:39:14.133Z,3.20
2023-05-10T01:41:42.298Z,3.40
2023-05-10T01:44:09.901Z,3.30
2023-05-10T01:46:40.789Z,3.20
2023-05-10T01:49:08.548Z,3.20
2023-05-10T01:51:36.205Z,2.50
2023-05-10T01:54:03.831Z,2.90
2023-05-10T01:56:31.919Z,3.40
2023-05-10T01:58:59.510Z,3.20
2023-05-10T02:01:27.452Z,3.00
2023-05-10T02:03:55.472Z,3.30
2023-05-10T02:06:23.110Z,3.20
2023-05-10T02:08:50.737Z,2.90
2023-05-10T02:11:18.534Z,2.50
2023-05-10T02:13:46.276Z,3.00
2023-05-10T02:16:13.929Z,2.90
2023-05-10T02:18:41.616Z,2.60
2023-05-10T02:21:09.233Z,3.20
2023-05-10T02:23:36.890Z,3.00
2023-05-10T02:26:04.606Z,2.80
2023-05-10T02:28:32.251Z,3.20
2023-05-10T02:30:59.871Z,3.20
2023-05-10T02:33:28.010Z,3.90
2023-05-10T02:35:55.668Z,3.60
2023-05-10T02:38:23.314Z,3.60
2023-05-10T02:40:50.946Z,3.70
2023-05-10T02:43:19.347Z,3.50
2023-05-10T02:45:46.986Z,3.30
2023-05-10T02:48:14.720Z,3.20
2023-05-10T02:50:42.480Z,3.40
2023-05-10T02:53:10.128Z,3.30
2023-05-10T02:55:37.778Z,3.00
2023-05-10T02:58:05.442Z,3.00
2023-05-10T03:00:33.457Z,2.90
2023-05-10T03:03:01.607Z,3.00
2023-05-10T03:05:29.298Z,3.40
2023-05-10T03:07:57.168Z,3.10
2023-05-10T03:10:24.776Z,3.50
2023-05-10T03:12:52.460Z,3.80
2023-05-10T03:15:20.203Z,3.40
2023-05-10T03:17:48.456Z,3.10
2023-05-10T03:20:16.383Z,3.50
2023-05-10T03:22:44.318Z,3.10
2023-05-10T03:25:12.102Z,3.70
2023-05-10T03:27:39.717Z,2.90
2023-05-10T03:30:07.468Z,3.30
2023-05-10T03:32:35.997Z,3.50
2023-05-10T03:35:04.044Z,3.30
2023-05-10T03:37:31.649Z,3.60
2023-05-10T03:39:59.286Z,3.50
2023-05-10T03:42:26.885Z,3.40
2023-05-10T03:44:54.526Z,3.10
2023-05-10T03:47:22.163Z,3.30
2023-05-10T03:49:49.769Z,3.60
2023-05-10T03:52:17.553Z,3.50
2023-05-10T03:54:45.175Z,3.60
2023-05-10T03:57:12.793Z,3.20
2023-05-10T03:59:40.470Z,3.40
2023-05-10T04:02:08.196Z,3.30
2023-05-10T04:04:35.988Z,3.40
2023-05-10T04:07:03.659Z,3.70
2023-05-10T04:09:31.314Z,3.70
2023-05-10T04:11:59.002Z,3.30
2023-05-10T04:14:26.631Z,3.30
2023-05-10T04:16:54.300Z,3.20
2023-05-10T04:19:22.407Z,2.90
2023-05-10T04:21:50.086Z,3.30
2023-05-10T04:24:17.774Z,3.10
2023-05-10T04:26:45.438Z,3.50
2023-05-10T04:29:13.050Z,2.90
2023-05-10T04:31:40.785Z,3.50
2023-05-10T04:34:08.410Z,2.80
2023-05-10T04:36:37.021Z,3.10
2023-05-10T04:39:04.659Z,3.30
2023-05-10T04:41:32.282Z,3.70
2023-05-10T04:43:59.896Z,3.20
2023-05-10T04:46:27.610Z,3.30
2023-05-10T04:48:55.390Z,3.10
2023-05-10T04:51:23.031Z,3.10
2023-05-10T04:54:01.714Z,2.80
2023-05-10T04:56:33.563Z,3.20
2023-05-10T04:59:01.187Z,3.10
2023-05-10T05:01:28.908Z,3.10
2023-05-10T05:03:56.819Z,2.70
2023-05-10T05:06:26.101Z,2.80
2023-05-10T05:08:53.816Z,3.10
2023-05-10T05:11:22.185Z,3.30
2023-05-10T05:13:49.793Z,3.40
2023-05-10T05:16:17.848Z,3.10
2023-05-10T05:18:45.602Z,3.00
2023-05-10T05:21:13.205Z,2.80
2023-05-10T05:23:40.818Z,3.10
2023-05-10T05:26:08.467Z,3.00
2023-05-10T05:28:38.414Z,3.40
2023-05-10T05:31:06.745Z,3.10
2023-05-10T05:33:34.554Z,2.70
2023-05-10T05:36:02.188Z,2.70
2023-05-10T05:38:29.866Z,3.30
2023-05-10T05:40:57.613Z,3.10
2023-05-10T05:43:25.909Z,3.20
2023-05-10T05:45:53.592Z,3.00
2023-05-10T05:48:21.243Z,3.00
2023-05-10T05:50:48.973Z,3.20
2023-05-10T05:53:16.985Z,2.80
2023-05-10T05:55:44.646Z,2.90
2023-05-10T05:58:12.373Z,3.30
2023-05-10T06:00:40.122Z,3.50
2023-05-10T06:03:08.186Z,3.50
2023-05-10T06:05:35.997Z,2.90
2023-05-10T06:08:03.612Z,2.90
2023-05-10T06:10:31.723Z,2.60
2023-05-10T06:12:59.544Z,2.90
2023-05-10T06:15:27.256Z,3.30
2023-05-10T06:17:54.918Z,2.80
2023-05-10T06:20:22.532Z,2.70
2023-05-10T06:22:50.152Z,3.00
2023-05-10T06:25:19.525Z,2.80
2023-05-10T06:27:51.751Z,2.80
2023-05-10T06:30:24.155Z,3.10
2023-05-10T06:32:51.930Z,2.80
2023-05-10T06:35:19.835Z,2.70
2023-05-10T06:37:47.967Z,3.10
2023-05-10T06:40:15.591Z,2.70
2023-05-10T06:42:43.287Z,2.90
2023-05-10T06:45:10.990Z,2.70
2023-05-10T06:47:39.443Z,2.60
2023-05-10T06:50:07.293Z,2.90
2023-05-10T06:52:34.915Z,3.10
2023-05-10T06:55:02.826Z,2.90
2023-05-10T06:57:32.080Z,3.00
2023-05-10T07:00:00.112Z,2.80
2023-05-10T07:02:28.123Z,2.80
2023-05-10T07:04:56.125Z,2.60
2023-05-10T07:07:23.739Z,2.60
2023-05-10T07:09:52.394Z,2.50
2023-05-10T07:12:20.086Z,2.50
2023-05-10T07:14:47.793Z,2.50
2023-05-10T07:17:15.562Z,2.70
2023-05-10T07:19:43.525Z,2.70
2023-05-10T07:22:11.190Z,2.70
2023-05-10T07:24:38.814Z,3.00
2023-05-10T07:27:06.694Z,2.70
2023-05-10T07:29:34.311Z,2.60
2023-05-10T07:32:02.380Z,2.70
2023-05-10T07:34:31.239Z,2.50
2023-05-10T07:36:58.904Z,2.80
2023-05-10T07:39:28.008Z,2.50
2023-05-10T07:41:55.970Z,2.60
2023-05-10T07:44:23.683Z,3.00
2023-05-10T07:46:51.458Z,2.80
2023-05-10T07:49:19.224Z,3.00
2023-05-10T07:51:46.913Z,2.40
2023-05-10T07:54:14.572Z,2.70
2023-05-10T07:56:46.575Z,2.60
2023-05-10T07:59:14.200Z,2.40
2023-05-10T08:01:41.814Z,2.70
2023-05-10T08:04:10.069Z,2.50
2023-05-10T08:06:37.718Z,2.40
2023-05-10T08:09:05.303Z,2.70
2023-05-10T08:11:34.395Z,2.50
2023-05-10T08:14:02.749Z,2.30
2023-05-10T08:16:30.436Z,2.50
2023-05-10T08:18:58.252Z,2.30
2023-05-10T08:21:25.983Z,2.50
2023-05-10T08:23:53.697Z,2.70
2023-05-10T08:26:22.701Z,2.60
2023-05-10T08:28:50.692Z,2.40
2023-05-10T08:31:19.224Z,2.50
2023-05-10T08:33:46.953Z,2.90
2023-05-10T08:36:20.757Z,3.00
2023-05-10T08:38:50.212Z,3.00
2023-05-10T08:41:18.014Z,2.30
2023-05-10T08:43:47.513Z,2.90
2023-05-10T08:46:15.195Z,2.90
2023-05-10T08:48:42.831Z,2.30
2023-05-10T08:51:10.590Z,2.70
2023-05-10T08:53:38.301Z,2.50
2023-05-10T08:56:05.945Z,2.50
2023-05-10T08:58:33.611Z,2.30
2023-05-10T09:01:01.637Z,2.70
2023-05-10T09:03:29.560Z,2.80
2023-05-10T09:05:57.248Z,2.50
2023-05-10T09:08:26.910Z,2.40
2023-05-10T09:10:54.780Z,2.50
2023-05-10T09:13:22.445Z,2.50
2023-05-10T09:15:50.066Z,2.60
2023-05-10T09:18:17.745Z,2.70
2023-05-10T09:20:46.144Z,2.60
2023-05-10T09:23:13.881Z,2.60
2023-05-10T09:25:41.590Z,2.30
2023-05-10T09:28:09.905Z,2.50
2023-05-10T09:30:37.808Z,2.40
2023-05-10T09:33:05.556Z,2.60
2023-05-10T09:35:33.517Z,2.70
2023-05-10T09:38:01.200Z,2.10
2023-05-10T09:40:28.910Z,3.20
2023-05-10T09:42:56.592Z,2.60
2023-05-10T09:45:24.236Z,2.50
2023-05-10T09:47:51.931Z,2.20
2023-05-10T09:50:19.728Z,2.70
2023-05-10T09:52:47.679Z,2.90
2023-05-10T09:55:15.553Z,2.70
2023-05-10T09:57:43.398Z,2.60
2023-05-10T10:00:11.361Z,2.60
2023-05-10T10:02:39.063Z,2.50
2023-05-10T10:05:06.870Z,2.60
2023-05-10T10:07:34.568Z,2.50
2023-05-10T10:10:02.194Z,2.20
2023-05-10T10:12:29.851Z,2.70
2023-05-10T10:14:57.510Z,2.70
2023-05-10T10:17:25.163Z,2.50
2023-05-10T10:19:52.832Z,2.50
2023-05-10T10:22:20.737Z,2.50
2023-05-10T10:24:48.354Z,2.30
2023-05-10T10:27:16.055Z,2.50
2023-05-10T10:29:43.654Z,2.60
2023-05-10T10:32:11.274Z,2.60
2023-05-10T10:34:38.899Z,2.60
2023-05-10T10:37:06.550Z,2.70
2023-05-10T10:39:34.363Z,2.60
2023-05-10T10:42:03.846Z,2.40
2023-05-10T10:44:32.042Z,2.70
2023-05-10T10:46:59.766Z,2.50
2023-05-10T10:49:27.932Z,2.50
2023-05-10T10:51:55.665Z,2.70
2023-05-10T10:54:23.321Z,3.00
2023-05-10T10:56:51.877Z,2.40
2023-05-10T10:59:19.506Z,2.60
2023-05-10T11:01:47.437Z,2.70
2023-05-10T11:04:15.173Z,2.20
2023-05-10T11:06:43.657Z,2.50
2023-05-10T11:09:11.293Z,2.50
2023-05-10T11:11:38.912Z,2.70
2023-05-10T11:14:06.619Z,2.60
2023-05-10T11:16:34.343Z,2.30
2023-05-10T11:19:03.338Z,2.90
2023-05-10T11:21:31.575Z,2.40
2023-05-10T11:23:59.522Z,2.50
2023-05-10T11:26:27.366Z,2.50
2023-05-10T11:28:59.687Z,2.70
2023-05-10T11:31:28.159Z,2.60
2023-05-10T11:33:56.233Z,2.30
2023-05-10T11:36:23.912Z,3.10
2023-05-10T11:38:51.532Z,2.20
2023-05-10T11:41:19.204Z,2.90
2023-05-10T11:43:46.817Z,2.90
2023-05-10T11:46:14.478Z,2.10
2023-05-10T11:48:42.132Z,2.50
2023-05-10T11:51:09.824Z,2.40
2023-05-10T11:53:37.485Z,2.30
2023-05-10T11:56:05.616Z,2.20
2023-05-10T11:58:33.470Z,2.20
2023-05-10T12:01:01.117Z,2.20
2023-05-10T12:03:29.225Z,2.20
2023-05-10T12:05:57.094Z,2.20
2023-05-10T12:08:24.791Z,2.60
2023-05-10T12:10:52.468Z,2.20
2023-05-10T12:13:20.132Z,2.20
2023-05-10T12:15:47.792Z,2.40
2023-05-10T12:18:15.498Z,2.10
2023-05-10T12:20:43.652Z,2.20
2023-05-10T12:23:11.644Z,2.20
2023-05-10T12:25:40.078Z,2.60
2023-05-10T12:28:08.107Z,2.30
2023-05-10T12:30:35.705Z,2.50
2023-05-10T12:33:03.725Z,2.10
2023-05-10T12:35:31.616Z,2.50
2023-05-10T12:37:59.196Z,1.90
2023-05-10T12:40:26.790Z,2.30
2023-05-10T12:42:54.472Z,2.10
2023-05-10T12:45:22.110Z,2.10
2023-05-10T12:47:49.781Z,2.60
2023-05-10T12:50:17.593Z,2.20
2023-05-10T12:52:45.425Z,2.20
2023-05-10T12:55:13.029Z,2.20
2023-05-10T12:57:40.602Z,2.30
2023-05-10T13:00:08.184Z,2.10
2023-05-10T13:02:36.104Z,2.30
2023-05-10T13:05:03.888Z,2.50
2023-05-10T13:07:31.542Z,2.50
2023-05-10T13:09:59.105Z,2.30
2023-05-10T13:12:26.681Z,2.30
2023-05-10T13:14:54.324Z,2.40
2023-05-10T13:17:21.968Z,2.30
2023-05-10T13:19:49.531Z,2.30
2023-05-10T13:22:22.951Z,2.70
2023-05-10T13:24:56.540Z,2.20
2023-05-10T13:27:24.095Z,2.10
2023-05-10T13:29:51.648Z,2.10
2023-05-10T13:32:19.188Z,2.20
2023-05-10T13:34:46.790Z,2.20
2023-05-10T13:37:14.356Z,2.10
2023-05-10T13:39:41.894Z,2.50
2023-05-10T13:42:09.461Z,2.30
2023-05-10T13:44:37.178Z,2.00
2023-05-10T13:47:04.772Z,2.60
2023-05-10T13:49:32.363Z,2.40
2023-05-10T13:52:00.048Z,2.30
2023-05-10T13:54:30.551Z,2.30
2023-05-10T13:56:58.159Z,2.20
2023-05-10T13:59:26.502Z,2.10
2023-05-10T14:01:54.134Z,2.00
2023-05-10T14:04:21.744Z,2.60
2023-05-10T14:06:50.208Z,2.30
2023-05-10T14:09:18.420Z,2.00
2023-05-10T14:11:46.691Z,2.40
2023-05-10T14:14:14.427Z,1.80
2023-05-10T14:16:42.072Z,2.50
2023-05-10T14:19:09.801Z,2.10
2023-05-10T14:21:37.494Z,2.00
2023-05-10T14:24:05.646Z,2.30
2023-05-10T14:26:33.207Z,2.10
2023-05-10T14:29:00.798Z,2.20
2023-05-10T14:31:28.413Z,2.20
2023-05-10T14:33:56.037Z,2.30
2023-05-10T14:36:23.665Z,2.20
2023-05-10T14:38:51.915Z,2.30
2023-05-10T14:41:19.498Z,2.40
2023-05-10T14:43:47.059Z,2.30
2023-05-10T14:46:14.681Z,2.20
2023-05-10T14:48:42.280Z,2.20
2023-05-10T14:51:09.975Z,2.10
2023-05-10T14:53:37.541Z,2.30
2023-05-10T14:56:05.187Z,2.20
2023-05-10T14:58:35.177Z,2.60
2023-05-10T15:01:02.852Z,2.20
2023-05-10T15:03:33.224Z,2.20
2023-05-10T15:06:04.798Z,2.40
2023-05-10T15:08:38.048Z,1.80
2023-05-10T15:11:12.873Z,2.20
2023-05-10T15:13:46.713Z,2.10
2023-05-10T15:16:19.102Z,2.30
2023-05-10T15:18:47.911Z,2.40
2023-05-10T15:21:20.013Z,2.80
2023-05-10T15:23:49.232Z,3.10
2023-05-10T15:26:18.005Z,2.90
2023-05-10T15:28:51.794Z,2.60
2023-05-10T15:31:20.509Z,2.50
2023-05-10T15:33:48.432Z,2.80
2023-05-10T15:36:16.346Z,2.60
2023-05-10T15:38:43.926Z,2.50
2023-05-10T15:41:11.460Z,2.70
2023-05-10T15:43:39.012Z,2.40
2023-05-10T15:46:07.096Z,3.30
2023-05-10T15:48:34.728Z,2.90
2023-05-10T15:51:02.328Z,2.50
2023-05-10T15:53:30.074Z,2.70
2023-05-10T15:55:57.695Z,3.00
2023-05-10T15:58:25.355Z,2.70
2023-05-10T16:00:53.018Z,2.50
2023-05-10T16:03:20.786Z,2.60
2023-05-10T16:05:48.734Z,3.00
2023-05-10T16:08:16.361Z,2.60
2023-05-10T16:10:44.002Z,2.70
2023-05-10T16:13:11.957Z,3.50
2023-05-10T16:15:39.588Z,2.80
2023-05-10T16:18:07.251Z,2.60
2023-05-10T16:20:34.859Z,3.50
2023-05-10T16:23:02.496Z,3.20
2023-05-10T16:25:30.160Z,2.50
2023-05-10T16:27:57.858Z,2.70
2023-05-10T16:30:27.423Z,3.00
2023-05-10T16:32:55.431Z,2.90
2023-05-10T16:35:24.080Z,2.60
2023-05-10T16:37:51.728Z,2.70
2023-05-10T16:40:19.466Z,3.10
2023-05-10T16:42:47.232Z,2.80
2023-05-10T16:45:16.590Z,2.80
2023-05-10T16:47:44.624Z,2.80
2023-05-10T16:50:12.514Z,2.60
2023-05-10T16:52:40.257Z,2.90
2023-05-10T16:55:07.926Z,3.30
2023-05-10T16:57:35.676Z,3.10
2023-05-10T17:00:03.419Z,2.40
2023-05-10T17:02:31.211Z,2.80
2023-05-10T17:04:58.969Z,2.80
2023-05-10T17:07:28.893Z,2.90
2023-05-10T17:09:56.892Z,2.60
2023-05-10T17:12:24.520Z,2.60
2023-05-10T17:14:52.130Z,3.10
2023-05-10T17:17:19.728Z,4.00
2023-05-10T17:19:47.343Z,3.80
2023-05-10T17:22:14.943Z,5.20
2023-05-10T17:24:42.567Z,3.30
2023-05-10T17:27:10.231Z,3.10
2023-05-10T17:29:39.317Z,2.90
2023-05-10T17:32:09.266Z,2.70
2023-05-10T17:34:37.222Z,2.70
2023-05-10T17:37:05.196Z,2.80
2023-05-10T17:39:32.805Z,3.90
2023-05-10T17:42:01.014Z,3.70
2023-05-10T17:44:28.620Z,3.50
2023-05-10T17:46:56.237Z,4.80
2023-05-10T17:49:23.873Z,8.90
2023-05-10T17:51:51.496Z,5.40
2023-05-10T17:54:19.217Z,3.60
2023-05-10T17:56:46.830Z,3.40
2023-05-10T17:59:14.434Z,3.40
2023-05-10T18:01:42.097Z,3.20
2023-05-10T18:04:09.995Z,4.10
2023-05-10T18:06:37.708Z,4.20
2023-05-10T18:09:07.375Z,4.00
2023-05-10T18:11:35.051Z,4.10
2023-05-10T18:14:02.661Z,4.80
2023-05-10T18:16:30.396Z,3.50
2023-05-10T18:18:58.176Z,4.10
2023-05-10T18:21:26.151Z,4.40
2023-05-10T18:23:53.899Z,3.70
2023-05-10T18:26:21.580Z,3.70
2023-05-10T18:28:49.320Z,4.30
2023-05-10T18:31:16.996Z,3.50
2023-05-10T18:33:44.650Z,5.00
2023-05-10T18:36:12.252Z,5.20
2023-05-10T18:38:40.372Z,4.40
2023-05-10T18:41:08.883Z,4.20
2023-05-10T18:43:36.668Z,4.60
2023-05-10T18:46:04.334Z,5.10
2023-05-10T18:48:31.994Z,4.90
2023-05-10T18:50:59.589Z,7.00
2023-05-10T18:53:27.218Z,7.30
2023-05-10T18:55:54.826Z,5.30
2023-05-10T18:58:22.418Z,5.10
2023-05-10T19:00:50.028Z,5.10
2023-05-10T19:03:17.626Z,5.50
2023-05-10T19:05:47.213Z,5.10
2023-05-10T19:08:14.822Z,4.30
2023-05-10T19:10:42.439Z,4.40
2023-05-10T19:13:10.080Z,4.30
2023-05-10T19:15:37.759Z,5.40
2023-05-10T19:18:05.530Z,4.60
2023-05-10T19:20:33.211Z,5.40
2023-05-10T19:23:09.845Z,4.60
2023-05-10T19:25:39.487Z,3.90
2023-05-10T19:28:09.072Z,4.40
2023-05-10T19:30:37.361Z,3.70
2023-05-10T19:33:06.506Z,4.20
2023-05-10T19:35:34.142Z,4.60
2023-05-10T19:38:01.797Z,3.90
2023-05-10T19:40:29.528Z,3.80
2023-05-10T19:42:57.227Z,4.10
2023-05-10T19:45:24.934Z,4.00
2023-05-10T19:47:52.864Z,4.30
2023-05-10T19:50:20.743Z,4.60
2023-05-10T19:52:50.657Z,6.10
2023-05-10T19:55:18.649Z,5.90
2023-05-10T19:57:46.580Z,6.10
2023-05-10T20:00:14.221Z,6.20
2023-05-10T20:02:41.874Z,6.40
2023-05-10T20:05:09.568Z,5.80
2023-05-10T20:07:37.462Z,5.90
2023-05-10T20:10:05.125Z,5.20
2023-05-10T20:12:33.032Z,5.40
2023-05-10T20:15:00.743Z,5.00
2023-05-10T20:17:28.424Z,5.50
2023-05-10T20:19:56.075Z,4.80
2023-05-10T20:22:23.670Z,5.40
2023-05-10T20:24:53.201Z,5.60
2023-05-10T20:27:22.018Z,6.70
2023-05-10T20:29:49.661Z,7.70
2023-05-10T20:32:17.252Z,5.40
2023-05-10T20:34:45.162Z,5.10
2023-05-10T20:37:13.402Z,4.90
2023-05-10T20:39:41.152Z,5.90
2023-05-10T20:42:09.276Z,6.70
2023-05-10T20:44:36.932Z,5.90
2023-05-10T20:47:04.539Z,5.60
2023-05-10T20:49:32.186Z,6.20
2023-05-10T20:51:59.806Z,5.90
2023-05-10T20:54:27.827Z,5.50
2023-05-10T20:56:55.426Z,5.50
2023-05-10T20:59:23.086Z,5.60
2023-05-10T21:01:50.917Z,6.00
2023-05-10T21:04:18.675Z,5.70
2023-05-10T21:06:46.318Z,4.70
2023-05-10T21:09:13.909Z,4.90
2023-05-10T21:11:41.680Z,5.40
2023-05-10T21:14:09.892Z,5.80
2023-05-10T21:16:37.569Z,5.10
2023-05-10T21:19:07.347Z,4.90
2023-05-10T21:21:35.482Z,5.50
2023-05-10T21:24:03.184Z,4.60
2023-05-10T21:26:31.493Z,5.00
2023-05-10T21:28:59.586Z,5.10
2023-05-10T21:31:27.289Z,4.80
2023-05-10T21:33:54.957Z,4.60
2023-05-10T21:36:22.960Z,5.20
2023-05-10T21:38:50.948Z,5.30
2023-05-10T21:41:18.746Z,5.20
2023-05-10T21:43:46.378Z,5.30
2023-05-10T21:46:14.479Z,4.80
2023-05-10T21:48:42.135Z,5.20
2023-05-10T21:51:09.776Z,5.30
2023-05-10T21:53:39.146Z,5.00
2023-05-10T21:56:07.452Z,5.70
2023-05-10T21:58:35.072Z,5.20
2023-05-10T22:01:03.499Z,5.00
2023-05-10T22:03:31.230Z,5.60
2023-05-10T22:05:58.867Z,5.40
2023-05-10T22:08:26.857Z,6.20
2023-05-10T22:10:54.610Z,5.10
2023-05-10T22:13:22.237Z,5.80
2023-05-10T22:15:49.979Z,5.10
2023-05-10T22:18:17.668Z,5.20
2023-05-10T22:20:45.565Z,5.50
2023-05-10T22:23:13.199Z,6.60
2023-05-10T22:25:40.869Z,5.50
2023-05-10T22:28:09.320Z,5.40
2023-05-10T22:30:37.100Z,6.00
2023-05-10T22:33:04.802Z,5.70
2023-05-10T22:35:32.465Z,5.80
2023-05-10T22:38:00.128Z,5.80
2023-05-10T22:40:28.002Z,6.00
2023-05-10T22:42:55.622Z,5.60
2023-05-10T22:45:23.307Z,5.30
2023-05-10T22:47:51.027Z,5.80
2023-05-10T22:50:19.259Z,6.00
2023-05-10T22:52:47.147Z,6.10
2023-05-10T22:55:14.772Z,4.80
2023-05-10T22:57:42.414Z,4.30
2023-05-10T23:00:10.061Z,4.50
2023-05-10T23:02:37.701Z,4.10
2023-05-10T23:05:05.932Z,5.10
2023-05-10T23:07:33.605Z,4.80
2023-05-10T23:10:01.277Z,4.70
2023-05-10T23:12:31.375Z,5.30
2023-05-10T23:14:59.760Z,4.50
2023-05-10T23:17:27.421Z,4.90
2023-05-10T23:19:55.107Z,4.70
2023-05-10T23:22:22.781Z,4.00
2023-05-10T23:24:50.370Z,5.30
2023-05-10T23:27:18.045Z,4.20
2023-05-10T23:29:45.699Z,3.90
2023-05-10T23:32:13.369Z,4.50
2023-05-10T23:34:41.038Z,4.20
2023-05-10T23:37:08.681Z,4.10
2023-05-10T23:39:36.576Z,4.10
2023-05-10T23:42:04.348Z,5.10
2023-05-10T23:44:31.953Z,4.70
2023-05-10T23:46:59.711Z,4.30
2023-05-10T23:49:27.453Z,5.50
2023-05-10T23:51:55.171Z,5.10
2023-05-10T23:54:22.839Z,4.80
2023-05-10T23:56:51.652Z,4.70
2023-05-10T23:59:19.301Z,4.40
